sensor_id;sensor_type;location;lat;lon;timestamp;P1;durP1;ratioP1;P2;durP2;ratioP2
10550;SDS011;5324;50.684;3.862;2022-11-27T00:01:10;6.90;;;3.57;;
10550;SDS011;5324;50.684;3.862;2022-11-27T00:03:37;8.47;;;3.97;;
10550;SDS011;5324;50.684;3.862;2022-11-27T00:06:03;6.40;;;3.60;;
10550;SDS011;5324;50.684;3.862;2022-11-27T00:08:29;5.03;;;3.50;;
10550;SDS011;5324;50.684;3.862;2022-11-27T00:10:55;4.80;;;4.03;;
10550;SDS011;5324;50.684;3.862;2022-11-27T00:13:21;6.37;;;3.93;;
10550;SDS011;5324;50.684;3.862;2022-11-27T00:15:47;8.40;;;4.00;;
10550;SDS011;5324;50.684;3.862;2022-11-27T00:18:13;7.00;;;3.63;;
10550;SDS011;5324;50.684;3.862;2022-11-27T00:20:40;7.73;;;4.20;;
10550;SDS011;5324;50.684;3.862;2022-11-27T00:23:06;8.03;;;4.53;;
10550;SDS011;5324;50.684;3.862;2022-11-27T00:25:32;10.00;;;4.33;;
10550;SDS011;5324;50.684;3.862;2022-11-27T00:27:59;7.27;;;4.60;;
10550;SDS011;5324;50.684;3.862;2022-11-27T00:30:25;9.63;;;4.73;;
10550;SDS011;5324;50.684;3.862;2022-11-27T00:32:51;10.27;;;4.47;;
10550;SDS011;5324;50.684;3.862;2022-11-27T00:35:17;7.43;;;4.40;;
10550;SDS011;5324;50.684;3.862;2022-11-27T00:37:43;9.07;;;3.97;;
10550;SDS011;5324;50.684;3.862;2022-11-27T00:40:09;6.60;;;4.40;;
10550;SDS011;5324;50.684;3.862;2022-11-27T00:42:35;7.77;;;5.00;;
10550;SDS011;5324;50.684;3.862;2022-11-27T00:45:01;9.60;;;4.40;;
10550;SDS011;5324;50.684;3.862;2022-11-27T00:47:28;6.87;;;4.20;;
10550;SDS011;5324;50.684;3.862;2022-11-27T00:49:54;11.00;;;4.40;;
10550;SDS011;5324;50.684;3.862;2022-11-27T00:52:22;9.50;;;4.37;;
10550;SDS011;5324;50.684;3.862;2022-11-27T00:54:48;6.30;;;3.70;;
10550;SDS011;5324;50.684;3.862;2022-11-27T00:57:14;7.47;;;3.93;;
10550;SDS011;5324;50.684;3.862;2022-11-27T00:59:40;12.30;;;4.60;;
10550;SDS011;5324;50.684;3.862;2022-11-27T01:02:06;9.17;;;4.57;;
10550;SDS011;5324;50.684;3.862;2022-11-27T01:04:33;7.07;;;3.67;;
10550;SDS011;5324;50.684;3.862;2022-11-27T01:06:58;8.30;;;3.53;;
10550;SDS011;5324;50.684;3.862;2022-11-27T01:09:24;8.50;;;4.10;;
10550;SDS011;5324;50.684;3.862;2022-11-27T01:11:50;8.43;;;3.27;;
10550;SDS011;5324;50.684;3.862;2022-11-27T01:14:17;9.80;;;3.87;;
10550;SDS011;5324;50.684;3.862;2022-11-27T01:16:43;7.60;;;3.63;;
10550;SDS011;5324;50.684;3.862;2022-11-27T01:19:10;9.83;;;3.87;;
10550;SDS011;5324;50.684;3.862;2022-11-27T01:21:36;8.10;;;3.20;;
10550;SDS011;5324;50.684;3.862;2022-11-27T01:24:02;9.47;;;3.70;;
10550;SDS011;5324;50.684;3.862;2022-11-27T01:26:29;8.07;;;3.50;;
10550;SDS011;5324;50.684;3.862;2022-11-27T01:28:55;9.87;;;3.40;;
10550;SDS011;5324;50.684;3.862;2022-11-27T01:31:22;7.30;;;3.87;;
10550;SDS011;5324;50.684;3.862;2022-11-27T01:33:53;9.67;;;3.63;;
10550;SDS011;5324;50.684;3.862;2022-11-27T01:36:19;11.17;;;3.93;;
10550;SDS011;5324;50.684;3.862;2022-11-27T01:38:45;5.97;;;2.83;;
10550;SDS011;5324;50.684;3.862;2022-11-27T01:41:18;6.13;;;3.13;;
10550;SDS011;5324;50.684;3.862;2022-11-27T01:43:49;7.30;;;3.70;;
10550;SDS011;5324;50.684;3.862;2022-11-27T01:48:52;8.33;;;2.77;;
10550;SDS011;5324;50.684;3.862;2022-11-27T01:51:19;7.03;;;2.67;;
10550;SDS011;5324;50.684;3.862;2022-11-27T01:53:47;4.33;;;2.40;;
10550;SDS011;5324;50.684;3.862;2022-11-27T01:56:14;13.33;;;3.30;;
10550;SDS011;5324;50.684;3.862;2022-11-27T01:58:40;6.17;;;2.90;;
10550;SDS011;5324;50.684;3.862;2022-11-27T02:01:06;8.13;;;2.80;;
10550;SDS011;5324;50.684;3.862;2022-11-27T02:03:32;5.37;;;2.30;;
10550;SDS011;5324;50.684;3.862;2022-11-27T02:05:58;9.33;;;2.77;;
10550;SDS011;5324;50.684;3.862;2022-11-27T02:08:24;9.80;;;3.03;;
10550;SDS011;5324;50.684;3.862;2022-11-27T02:10:57;6.77;;;2.80;;
10550;SDS011;5324;50.684;3.862;2022-11-27T02:21:36;7.10;;;2.40;;
10550;SDS011;5324;50.684;3.862;2022-11-27T02:29:25;7.17;;;2.93;;
10550;SDS011;5324;50.684;3.862;2022-11-27T02:31:57;3.93;;;2.10;;
10550;SDS011;5324;50.684;3.862;2022-11-27T02:34:30;8.13;;;2.63;;
10550;SDS011;5324;50.684;3.862;2022-11-27T02:37:04;4.60;;;2.37;;
10550;SDS011;5324;50.684;3.862;2022-11-27T02:39:36;4.23;;;2.20;;
10550;SDS011;5324;50.684;3.862;2022-11-27T02:42:10;7.50;;;2.90;;
10550;SDS011;5324;50.684;3.862;2022-11-27T02:44:38;5.07;;;2.60;;
10550;SDS011;5324;50.684;3.862;2022-11-27T02:47:05;7.33;;;2.27;;
10550;SDS011;5324;50.684;3.862;2022-11-27T02:49:32;6.30;;;2.10;;
10550;SDS011;5324;50.684;3.862;2022-11-27T02:51:58;3.70;;;2.37;;
10550;SDS011;5324;50.684;3.862;2022-11-27T02:54:27;7.10;;;3.20;;
10550;SDS011;5324;50.684;3.862;2022-11-27T02:56:53;5.03;;;2.70;;
10550;SDS011;5324;50.684;3.862;2022-11-27T02:59:20;5.43;;;2.40;;
10550;SDS011;5324;50.684;3.862;2022-11-27T03:01:48;7.20;;;2.47;;
10550;SDS011;5324;50.684;3.862;2022-11-27T03:04:17;4.53;;;2.33;;
10550;SDS011;5324;50.684;3.862;2022-11-27T03:06:54;7.10;;;2.43;;
10550;SDS011;5324;50.684;3.862;2022-11-27T03:09:23;4.73;;;2.43;;
10550;SDS011;5324;50.684;3.862;2022-11-27T03:11:50;6.30;;;2.63;;
10550;SDS011;5324;50.684;3.862;2022-11-27T03:14:16;4.30;;;2.37;;
10550;SDS011;5324;50.684;3.862;2022-11-27T03:21:55;5.57;;;2.20;;
10550;SDS011;5324;50.684;3.862;2022-11-27T03:24:21;3.37;;;2.27;;
10550;SDS011;5324;50.684;3.862;2022-11-27T03:26:47;4.87;;;2.30;;
10550;SDS011;5324;50.684;3.862;2022-11-27T03:29:16;5.17;;;2.03;;
10550;SDS011;5324;50.684;3.862;2022-11-27T03:31:43;6.63;;;2.10;;
10550;SDS011;5324;50.684;3.862;2022-11-27T03:34:09;6.27;;;2.20;;
10550;SDS011;5324;50.684;3.862;2022-11-27T03:36:35;5.80;;;2.73;;
10550;SDS011;5324;50.684;3.862;2022-11-27T03:39:01;7.10;;;2.80;;
10550;SDS011;5324;50.684;3.862;2022-11-27T03:49:37;6.67;;;2.97;;
10550;SDS011;5324;50.684;3.862;2022-11-27T03:52:14;5.33;;;2.30;;
10550;SDS011;5324;50.684;3.862;2022-11-27T03:54:48;5.47;;;2.50;;
10550;SDS011;5324;50.684;3.862;2022-11-27T03:57:18;4.63;;;2.90;;
10550;SDS011;5324;50.684;3.862;2022-11-27T03:59:47;4.93;;;2.70;;
10550;SDS011;5324;50.684;3.862;2022-11-27T04:02:15;4.03;;;2.50;;
10550;SDS011;5324;50.684;3.862;2022-11-27T04:04:42;6.73;;;3.10;;
10550;SDS011;5324;50.684;3.862;2022-11-27T04:07:10;8.63;;;2.80;;
10550;SDS011;5324;50.684;3.862;2022-11-27T04:09:40;3.30;;;2.20;;
10550;SDS011;5324;50.684;3.862;2022-11-27T04:12:06;6.50;;;2.60;;
10550;SDS011;5324;50.684;3.862;2022-11-27T04:14:33;4.83;;;2.50;;
10550;SDS011;5324;50.684;3.862;2022-11-27T04:16:58;4.93;;;3.00;;
10550;SDS011;5324;50.684;3.862;2022-11-27T04:19:25;5.23;;;2.60;;
10550;SDS011;5324;50.684;3.862;2022-11-27T04:21:50;4.77;;;2.57;;
10550;SDS011;5324;50.684;3.862;2022-11-27T04:24:16;3.67;;;2.60;;
10550;SDS011;5324;50.684;3.862;2022-11-27T04:26:42;5.10;;;2.63;;
10550;SDS011;5324;50.684;3.862;2022-11-27T04:29:08;6.43;;;2.90;;
10550;SDS011;5324;50.684;3.862;2022-11-27T04:31:34;3.60;;;2.37;;
10550;SDS011;5324;50.684;3.862;2022-11-27T04:34:01;4.70;;;2.57;;
10550;SDS011;5324;50.684;3.862;2022-11-27T04:36:27;7.93;;;2.90;;
10550;SDS011;5324;50.684;3.862;2022-11-27T04:38:53;4.03;;;2.40;;
10550;SDS011;5324;50.684;3.862;2022-11-27T04:41:19;4.60;;;2.30;;
10550;SDS011;5324;50.684;3.862;2022-11-27T04:43:45;4.37;;;2.40;;
10550;SDS011;5324;50.684;3.862;2022-11-27T04:46:11;6.63;;;2.80;;
10550;SDS011;5324;50.684;3.862;2022-11-27T04:48:37;5.17;;;2.50;;
10550;SDS011;5324;50.684;3.862;2022-11-27T04:51:03;4.50;;;2.37;;
10550;SDS011;5324;50.684;3.862;2022-11-27T04:53:29;5.53;;;2.50;;
10550;SDS011;5324;50.684;3.862;2022-11-27T04:55:55;5.40;;;2.70;;
10550;SDS011;5324;50.684;3.862;2022-11-27T04:58:21;4.83;;;2.63;;
10550;SDS011;5324;50.684;3.862;2022-11-27T05:00:47;4.67;;;2.73;;
10550;SDS011;5324;50.684;3.862;2022-11-27T05:03:13;5.50;;;2.60;;
10550;SDS011;5324;50.684;3.862;2022-11-27T05:05:39;6.70;;;2.70;;
10550;SDS011;5324;50.684;3.862;2022-11-27T05:08:05;5.13;;;2.10;;
10550;SDS011;5324;50.684;3.862;2022-11-27T05:10:31;6.47;;;2.80;;
10550;SDS011;5324;50.684;3.862;2022-11-27T05:12:57;4.87;;;2.53;;
10550;SDS011;5324;50.684;3.862;2022-11-27T05:15:23;4.60;;;2.90;;
10550;SDS011;5324;50.684;3.862;2022-11-27T05:17:49;4.20;;;2.50;;
10550;SDS011;5324;50.684;3.862;2022-11-27T05:20:15;5.37;;;2.63;;
10550;SDS011;5324;50.684;3.862;2022-11-27T05:22:41;4.93;;;2.83;;
10550;SDS011;5324;50.684;3.862;2022-11-27T05:25:08;5.67;;;2.80;;
10550;SDS011;5324;50.684;3.862;2022-11-27T05:27:34;4.07;;;2.43;;
10550;SDS011;5324;50.684;3.862;2022-11-27T05:30:00;3.30;;;2.37;;
10550;SDS011;5324;50.684;3.862;2022-11-27T05:32:26;5.27;;;2.40;;
10550;SDS011;5324;50.684;3.862;2022-11-27T05:34:52;5.97;;;2.67;;
10550;SDS011;5324;50.684;3.862;2022-11-27T05:37:18;4.47;;;3.03;;
10550;SDS011;5324;50.684;3.862;2022-11-27T05:39:44;7.57;;;3.07;;
10550;SDS011;5324;50.684;3.862;2022-11-27T05:42:10;5.83;;;2.83;;
10550;SDS011;5324;50.684;3.862;2022-11-27T05:44:36;4.43;;;2.47;;
10550;SDS011;5324;50.684;3.862;2022-11-27T05:47:02;4.57;;;2.50;;
10550;SDS011;5324;50.684;3.862;2022-11-27T05:49:28;5.67;;;2.57;;
10550;SDS011;5324;50.684;3.862;2022-11-27T05:51:54;3.60;;;2.70;;
10550;SDS011;5324;50.684;3.862;2022-11-27T05:54:20;5.67;;;2.73;;
10550;SDS011;5324;50.684;3.862;2022-11-27T05:56:46;7.47;;;3.27;;
10550;SDS011;5324;50.684;3.862;2022-11-27T05:59:12;3.00;;;2.40;;
10550;SDS011;5324;50.684;3.862;2022-11-27T06:01:39;6.33;;;2.70;;
10550;SDS011;5324;50.684;3.862;2022-11-27T06:04:05;4.87;;;2.90;;
10550;SDS011;5324;50.684;3.862;2022-11-27T06:06:31;3.27;;;2.70;;
10550;SDS011;5324;50.684;3.862;2022-11-27T06:08:57;5.60;;;2.90;;
10550;SDS011;5324;50.684;3.862;2022-11-27T06:11:22;4.37;;;2.93;;
10550;SDS011;5324;50.684;3.862;2022-11-27T06:13:49;2.93;;;2.47;;
10550;SDS011;5324;50.684;3.862;2022-11-27T06:16:17;6.43;;;3.00;;
10550;SDS011;5324;50.684;3.862;2022-11-27T06:18:43;9.97;;;3.03;;
10550;SDS011;5324;50.684;3.862;2022-11-27T06:21:11;4.43;;;2.40;;
10550;SDS011;5324;50.684;3.862;2022-11-27T06:23:37;4.30;;;2.73;;
10550;SDS011;5324;50.684;3.862;2022-11-27T06:28:39;6.20;;;2.57;;
10550;SDS011;5324;50.684;3.862;2022-11-27T06:31:12;4.30;;;2.73;;
10550;SDS011;5324;50.684;3.862;2022-11-27T06:33:39;3.40;;;2.80;;
10550;SDS011;5324;50.684;3.862;2022-11-27T06:36:05;6.80;;;3.27;;
10550;SDS011;5324;50.684;3.862;2022-11-27T06:38:32;4.47;;;2.80;;
10550;SDS011;5324;50.684;3.862;2022-11-27T06:41:05;3.80;;;2.63;;
10550;SDS011;5324;50.684;3.862;2022-11-27T06:43:32;5.17;;;2.87;;
10550;SDS011;5324;50.684;3.862;2022-11-27T06:45:59;3.77;;;2.80;;
10550;SDS011;5324;50.684;3.862;2022-11-27T06:48:25;3.37;;;2.40;;
10550;SDS011;5324;50.684;3.862;2022-11-27T06:50:51;4.73;;;2.93;;
10550;SDS011;5324;50.684;3.862;2022-11-27T06:53:17;4.33;;;2.80;;
10550;SDS011;5324;50.684;3.862;2022-11-27T06:55:44;6.27;;;2.63;;
10550;SDS011;5324;50.684;3.862;2022-11-27T06:58:10;5.43;;;3.43;;
10550;SDS011;5324;50.684;3.862;2022-11-27T07:00:36;5.33;;;2.50;;
10550;SDS011;5324;50.684;3.862;2022-11-27T07:03:02;7.03;;;2.97;;
10550;SDS011;5324;50.684;3.862;2022-11-27T07:05:28;3.47;;;2.80;;
10550;SDS011;5324;50.684;3.862;2022-11-27T07:07:54;3.67;;;2.63;;
10550;SDS011;5324;50.684;3.862;2022-11-27T07:10:21;5.77;;;2.90;;
10550;SDS011;5324;50.684;3.862;2022-11-27T07:12:47;4.00;;;3.00;;
10550;SDS011;5324;50.684;3.862;2022-11-27T07:15:13;5.87;;;2.63;;
10550;SDS011;5324;50.684;3.862;2022-11-27T07:17:39;4.23;;;2.70;;
10550;SDS011;5324;50.684;3.862;2022-11-27T07:20:06;3.30;;;2.80;;
10550;SDS011;5324;50.684;3.862;2022-11-27T07:22:33;6.40;;;2.87;;
10550;SDS011;5324;50.684;3.862;2022-11-27T07:24:59;5.00;;;3.00;;
10550;SDS011;5324;50.684;3.862;2022-11-27T07:27:25;7.50;;;3.57;;
10550;SDS011;5324;50.684;3.862;2022-11-27T07:29:51;3.27;;;2.53;;
10550;SDS011;5324;50.684;3.862;2022-11-27T07:32:17;4.80;;;2.90;;
10550;SDS011;5324;50.684;3.862;2022-11-27T07:34:43;6.33;;;3.00;;
10550;SDS011;5324;50.684;3.862;2022-11-27T07:37:09;5.43;;;3.43;;
10550;SDS011;5324;50.684;3.862;2022-11-27T07:39:35;5.30;;;3.03;;
10550;SDS011;5324;50.684;3.862;2022-11-27T07:42:01;9.03;;;3.20;;
10550;SDS011;5324;50.684;3.862;2022-11-27T07:44:27;3.93;;;2.90;;
10550;SDS011;5324;50.684;3.862;2022-11-27T07:46:53;5.57;;;3.60;;
10550;SDS011;5324;50.684;3.862;2022-11-27T07:49:19;6.50;;;3.50;;
10550;SDS011;5324;50.684;3.862;2022-11-27T07:51:45;9.33;;;3.80;;
10550;SDS011;5324;50.684;3.862;2022-11-27T07:54:11;5.73;;;3.43;;
10550;SDS011;5324;50.684;3.862;2022-11-27T07:56:37;4.17;;;3.00;;
10550;SDS011;5324;50.684;3.862;2022-11-27T07:59:03;7.17;;;3.70;;
10550;SDS011;5324;50.684;3.862;2022-11-27T08:01:29;4.87;;;3.17;;
10550;SDS011;5324;50.684;3.862;2022-11-27T08:03:55;5.97;;;3.67;;
10550;SDS011;5324;50.684;3.862;2022-11-27T08:06:22;3.70;;;2.63;;
10550;SDS011;5324;50.684;3.862;2022-11-27T08:08:49;7.30;;;2.90;;
10550;SDS011;5324;50.684;3.862;2022-11-27T08:13:44;4.60;;;3.03;;
10550;SDS011;5324;50.684;3.862;2022-11-27T08:16:10;4.13;;;3.47;;
10550;SDS011;5324;50.684;3.862;2022-11-27T08:18:37;5.33;;;3.37;;
10550;SDS011;5324;50.684;3.862;2022-11-27T08:21:03;4.40;;;3.60;;
10550;SDS011;5324;50.684;3.862;2022-11-27T08:23:29;4.13;;;3.50;;
10550;SDS011;5324;50.684;3.862;2022-11-27T08:25:55;6.53;;;3.57;;
10550;SDS011;5324;50.684;3.862;2022-11-27T08:28:21;6.63;;;3.30;;
10550;SDS011;5324;50.684;3.862;2022-11-27T08:30:54;6.20;;;3.40;;
10550;SDS011;5324;50.684;3.862;2022-11-27T08:33:20;6.83;;;3.50;;
10550;SDS011;5324;50.684;3.862;2022-11-27T08:35:49;8.97;;;4.00;;
10550;SDS011;5324;50.684;3.862;2022-11-27T08:38:15;6.07;;;3.77;;
10550;SDS011;5324;50.684;3.862;2022-11-27T08:40:41;5.70;;;3.03;;
10550;SDS011;5324;50.684;3.862;2022-11-27T08:43:07;4.47;;;2.97;;
10550;SDS011;5324;50.684;3.862;2022-11-27T08:45:33;6.30;;;3.17;;
10550;SDS011;5324;50.684;3.862;2022-11-27T08:47:59;5.13;;;3.07;;
10550;SDS011;5324;50.684;3.862;2022-11-27T08:50:25;5.97;;;3.70;;
10550;SDS011;5324;50.684;3.862;2022-11-27T08:52:51;4.63;;;3.23;;
10550;SDS011;5324;50.684;3.862;2022-11-27T08:55:17;4.60;;;3.17;;
10550;SDS011;5324;50.684;3.862;2022-11-27T08:57:43;4.33;;;2.93;;
10550;SDS011;5324;50.684;3.862;2022-11-27T09:00:09;5.93;;;3.27;;
10550;SDS011;5324;50.684;3.862;2022-11-27T09:02:36;4.63;;;3.13;;
10550;SDS011;5324;50.684;3.862;2022-11-27T09:05:03;4.80;;;3.17;;
10550;SDS011;5324;50.684;3.862;2022-11-27T09:07:29;4.93;;;3.47;;
10550;SDS011;5324;50.684;3.862;2022-11-27T09:09:55;4.47;;;3.17;;
10550;SDS011;5324;50.684;3.862;2022-11-27T09:12:21;4.07;;;3.00;;
10550;SDS011;5324;50.684;3.862;2022-11-27T09:14:47;7.60;;;3.63;;
10550;SDS011;5324;50.684;3.862;2022-11-27T09:17:13;5.80;;;3.40;;
10550;SDS011;5324;50.684;3.862;2022-11-27T09:19:41;4.47;;;3.20;;
10550;SDS011;5324;50.684;3.862;2022-11-27T09:22:07;9.70;;;3.40;;
10550;SDS011;5324;50.684;3.862;2022-11-27T09:24:33;4.83;;;3.50;;
10550;SDS011;5324;50.684;3.862;2022-11-27T09:26:58;8.83;;;3.57;;
10550;SDS011;5324;50.684;3.862;2022-11-27T09:29:24;7.80;;;3.83;;
10550;SDS011;5324;50.684;3.862;2022-11-27T09:31:50;6.07;;;3.63;;
10550;SDS011;5324;50.684;3.862;2022-11-27T09:34:16;6.23;;;3.80;;
10550;SDS011;5324;50.684;3.862;2022-11-27T09:36:42;4.17;;;3.30;;
10550;SDS011;5324;50.684;3.862;2022-11-27T09:39:09;5.27;;;3.40;;
10550;SDS011;5324;50.684;3.862;2022-11-27T09:46:51;4.17;;;3.73;;
10550;SDS011;5324;50.684;3.862;2022-11-27T09:49:25;3.90;;;3.47;;
10550;SDS011;5324;50.684;3.862;2022-11-27T09:51:53;8.83;;;4.27;;
10550;SDS011;5324;50.684;3.862;2022-11-27T09:54:40;4.67;;;3.47;;
10550;SDS011;5324;50.684;3.862;2022-11-27T09:57:08;6.07;;;4.10;;
10550;SDS011;5324;50.684;3.862;2022-11-27T09:59:40;7.10;;;4.10;;
10550;SDS011;5324;50.684;3.862;2022-11-27T10:02:15;6.13;;;4.07;;
10550;SDS011;5324;50.684;3.862;2022-11-27T10:04:41;5.30;;;3.87;;
10550;SDS011;5324;50.684;3.862;2022-11-27T10:07:14;4.83;;;3.50;;
10550;SDS011;5324;50.684;3.862;2022-11-27T10:12:29;7.23;;;3.60;;
10550;SDS011;5324;50.684;3.862;2022-11-27T10:15:15;6.17;;;3.53;;
10550;SDS011;5324;50.684;3.862;2022-11-27T10:18:01;5.27;;;3.70;;
10550;SDS011;5324;50.684;3.862;2022-11-27T10:20:36;5.67;;;4.03;;
10550;SDS011;5324;50.684;3.862;2022-11-27T10:23:26;5.73;;;3.50;;
10550;SDS011;5324;50.684;3.862;2022-11-27T10:25:58;4.00;;;3.47;;
10550;SDS011;5324;50.684;3.862;2022-11-27T10:30:57;6.27;;;3.87;;
10550;SDS011;5324;50.684;3.862;2022-11-27T10:33:30;7.23;;;3.80;;
10550;SDS011;5324;50.684;3.862;2022-11-27T10:35:59;8.07;;;4.63;;
10550;SDS011;5324;50.684;3.862;2022-11-27T10:38:26;4.83;;;3.37;;
10550;SDS011;5324;50.684;3.862;2022-11-27T10:43:54;5.73;;;3.73;;
10550;SDS011;5324;50.684;3.862;2022-11-27T10:46:31;6.53;;;4.20;;
10550;SDS011;5324;50.684;3.862;2022-11-27T10:49:01;5.33;;;3.53;;
10550;SDS011;5324;50.684;3.862;2022-11-27T10:51:28;4.87;;;3.80;;
10550;SDS011;5324;50.684;3.862;2022-11-27T10:53:55;6.53;;;3.70;;
10550;SDS011;5324;50.684;3.862;2022-11-27T10:56:35;6.90;;;4.07;;
10550;SDS011;5324;50.684;3.862;2022-11-27T10:59:05;5.43;;;3.90;;
10550;SDS011;5324;50.684;3.862;2022-11-27T11:01:44;5.10;;;3.57;;
10550;SDS011;5324;50.684;3.862;2022-11-27T11:04:11;4.33;;;3.37;;
10550;SDS011;5324;50.684;3.862;2022-11-27T11:06:42;5.27;;;3.83;;
10550;SDS011;5324;50.684;3.862;2022-11-27T11:09:13;5.20;;;3.73;;
10550;SDS011;5324;50.684;3.862;2022-11-27T11:11:40;6.93;;;4.10;;
10550;SDS011;5324;50.684;3.862;2022-11-27T11:14:23;5.33;;;3.93;;
10550;SDS011;5324;50.684;3.862;2022-11-27T11:16:49;7.43;;;4.17;;
10550;SDS011;5324;50.684;3.862;2022-11-27T11:19:28;6.07;;;3.87;;
10550;SDS011;5324;50.684;3.862;2022-11-27T11:21:54;6.47;;;3.70;;
10550;SDS011;5324;50.684;3.862;2022-11-27T11:24:30;6.57;;;3.97;;
10550;SDS011;5324;50.684;3.862;2022-11-27T11:31:49;4.17;;;3.07;;
10550;SDS011;5324;50.684;3.862;2022-11-27T11:36:52;5.50;;;3.63;;
10550;SDS011;5324;50.684;3.862;2022-11-27T11:39:21;5.03;;;3.73;;
10550;SDS011;5324;50.684;3.862;2022-11-27T11:41:47;4.70;;;3.77;;
10550;SDS011;5324;50.684;3.862;2022-11-27T11:44:35;6.07;;;3.70;;
10550;SDS011;5324;50.684;3.862;2022-11-27T11:47:02;5.23;;;3.57;;
10550;SDS011;5324;50.684;3.862;2022-11-27T11:49:28;5.03;;;3.67;;
10550;SDS011;5324;50.684;3.862;2022-11-27T11:52:18;5.27;;;3.67;;
10550;SDS011;5324;50.684;3.862;2022-11-27T11:57:34;5.20;;;3.23;;
10550;SDS011;5324;50.684;3.862;2022-11-27T12:12:51;6.47;;;3.20;;
10550;SDS011;5324;50.684;3.862;2022-11-27T12:15:25;5.20;;;3.43;;
10550;SDS011;5324;50.684;3.862;2022-11-27T12:25:41;5.47;;;3.63;;
10550;SDS011;5324;50.684;3.862;2022-11-27T12:30:41;5.53;;;3.73;;
10550;SDS011;5324;50.684;3.862;2022-11-27T12:36:07;4.87;;;3.50;;
10550;SDS011;5324;50.684;3.862;2022-11-27T12:41:28;6.20;;;3.83;;
10550;SDS011;5324;50.684;3.862;2022-11-27T12:43:56;5.50;;;3.90;;
10550;SDS011;5324;50.684;3.862;2022-11-27T12:49:21;4.77;;;3.23;;
10550;SDS011;5324;50.684;3.862;2022-11-27T12:51:54;4.40;;;3.40;;
10550;SDS011;5324;50.684;3.862;2022-11-27T12:54:28;6.87;;;3.70;;
10550;SDS011;5324;50.684;3.862;2022-11-27T12:56:56;7.23;;;4.60;;
10550;SDS011;5324;50.684;3.862;2022-11-27T12:59:27;7.03;;;4.57;;
10550;SDS011;5324;50.684;3.862;2022-11-27T13:02:01;5.53;;;3.60;;
10550;SDS011;5324;50.684;3.862;2022-11-27T13:04:36;7.03;;;4.20;;
10550;SDS011;5324;50.684;3.862;2022-11-27T13:07:20;4.60;;;3.40;;
10550;SDS011;5324;50.684;3.862;2022-11-27T13:09:52;5.67;;;3.50;;
10550;SDS011;5324;50.684;3.862;2022-11-27T13:12:28;4.57;;;3.33;;
10550;SDS011;5324;50.684;3.862;2022-11-27T13:15:04;7.43;;;3.90;;
10550;SDS011;5324;50.684;3.862;2022-11-27T13:17:34;6.10;;;3.60;;
10550;SDS011;5324;50.684;3.862;2022-11-27T13:20:02;3.70;;;3.20;;
10550;SDS011;5324;50.684;3.862;2022-11-27T13:22:29;6.47;;;3.67;;
10550;SDS011;5324;50.684;3.862;2022-11-27T13:24:58;5.53;;;3.50;;
10550;SDS011;5324;50.684;3.862;2022-11-27T13:27:25;4.67;;;3.40;;
10550;SDS011;5324;50.684;3.862;2022-11-27T13:29:58;5.83;;;3.00;;
10550;SDS011;5324;50.684;3.862;2022-11-27T13:32:32;4.53;;;3.50;;
10550;SDS011;5324;50.684;3.862;2022-11-27T13:35:02;4.13;;;2.93;;
10550;SDS011;5324;50.684;3.862;2022-11-27T13:37:33;3.37;;;3.07;;
10550;SDS011;5324;50.684;3.862;2022-11-27T13:40:04;4.43;;;3.37;;
10550;SDS011;5324;50.684;3.862;2022-11-27T13:42:33;3.33;;;3.00;;
10550;SDS011;5324;50.684;3.862;2022-11-27T13:45:00;4.40;;;2.97;;
10550;SDS011;5324;50.684;3.862;2022-11-27T13:47:28;6.60;;;3.30;;
10550;SDS011;5324;50.684;3.862;2022-11-27T13:50:02;4.60;;;3.20;;
10550;SDS011;5324;50.684;3.862;2022-11-27T13:52:29;4.60;;;3.37;;
10550;SDS011;5324;50.684;3.862;2022-11-27T13:54:59;4.77;;;3.07;;
10550;SDS011;5324;50.684;3.862;2022-11-27T13:57:26;4.23;;;3.23;;
10550;SDS011;5324;50.684;3.862;2022-11-27T14:02:22;4.83;;;3.37;;
10550;SDS011;5324;50.684;3.862;2022-11-27T14:04:49;6.60;;;3.40;;
10550;SDS011;5324;50.684;3.862;2022-11-27T14:07:15;5.33;;;3.67;;
10550;SDS011;5324;50.684;3.862;2022-11-27T14:14:40;5.50;;;4.07;;
10550;SDS011;5324;50.684;3.862;2022-11-27T14:17:21;3.93;;;3.53;;
10550;SDS011;5324;50.684;3.862;2022-11-27T14:19:56;4.00;;;3.30;;
10550;SDS011;5324;50.684;3.862;2022-11-27T14:22:34;5.20;;;3.47;;
10550;SDS011;5324;50.684;3.862;2022-11-27T14:25:26;5.13;;;3.33;;
10550;SDS011;5324;50.684;3.862;2022-11-27T14:28:03;5.90;;;3.90;;
10550;SDS011;5324;50.684;3.862;2022-11-27T14:30:33;5.77;;;3.20;;
10550;SDS011;5324;50.684;3.862;2022-11-27T14:32:59;3.43;;;3.00;;
10550;SDS011;5324;50.684;3.862;2022-11-27T14:35:26;4.13;;;3.30;;
10550;SDS011;5324;50.684;3.862;2022-11-27T14:37:52;3.93;;;2.87;;
10550;SDS011;5324;50.684;3.862;2022-11-27T14:40:24;3.53;;;2.80;;
10550;SDS011;5324;50.684;3.862;2022-11-27T14:42:50;4.60;;;2.80;;
10550;SDS011;5324;50.684;3.862;2022-11-27T14:45:17;4.47;;;3.20;;
10550;SDS011;5324;50.684;3.862;2022-11-27T14:47:45;4.27;;;2.90;;
10550;SDS011;5324;50.684;3.862;2022-11-27T14:50:12;5.10;;;3.07;;
10550;SDS011;5324;50.684;3.862;2022-11-27T14:52:40;4.67;;;3.10;;
10550;SDS011;5324;50.684;3.862;2022-11-27T14:55:13;4.93;;;2.80;;
10550;SDS011;5324;50.684;3.862;2022-11-27T14:57:40;3.47;;;2.97;;
10550;SDS011;5324;50.684;3.862;2022-11-27T15:00:14;5.37;;;3.27;;
10550;SDS011;5324;50.684;3.862;2022-11-27T15:02:40;4.67;;;2.77;;
10550;SDS011;5324;50.684;3.862;2022-11-27T15:05:06;4.73;;;3.23;;
10550;SDS011;5324;50.684;3.862;2022-11-27T15:07:34;4.97;;;3.27;;
10550;SDS011;5324;50.684;3.862;2022-11-27T15:10:02;4.30;;;3.10;;
10550;SDS011;5324;50.684;3.862;2022-11-27T15:12:30;5.33;;;3.40;;
10550;SDS011;5324;50.684;3.862;2022-11-27T15:15:08;5.60;;;3.80;;
10550;SDS011;5324;50.684;3.862;2022-11-27T15:17:35;4.80;;;3.00;;
10550;SDS011;5324;50.684;3.862;2022-11-27T15:20:03;4.07;;;3.10;;
10550;SDS011;5324;50.684;3.862;2022-11-27T15:22:29;6.70;;;3.57;;
10550;SDS011;5324;50.684;3.862;2022-11-27T15:25:01;5.10;;;2.90;;
10550;SDS011;5324;50.684;3.862;2022-11-27T15:27:31;3.73;;;3.13;;
10550;SDS011;5324;50.684;3.862;2022-11-27T15:29:59;4.87;;;2.97;;
10550;SDS011;5324;50.684;3.862;2022-11-27T15:32:26;3.70;;;2.60;;
10550;SDS011;5324;50.684;3.862;2022-11-27T15:34:52;5.67;;;2.93;;
10550;SDS011;5324;50.684;3.862;2022-11-27T15:37:23;3.77;;;2.77;;
10550;SDS011;5324;50.684;3.862;2022-11-27T15:39:50;3.77;;;2.73;;
10550;SDS011;5324;50.684;3.862;2022-11-27T15:42:17;3.87;;;2.57;;
10550;SDS011;5324;50.684;3.862;2022-11-27T15:44:44;4.60;;;2.33;;
10550;SDS011;5324;50.684;3.862;2022-11-27T15:47:18;4.57;;;2.67;;
10550;SDS011;5324;50.684;3.862;2022-11-27T15:49:46;3.73;;;2.57;;
10550;SDS011;5324;50.684;3.862;2022-11-27T15:52:12;4.03;;;2.73;;
10550;SDS011;5324;50.684;3.862;2022-11-27T15:54:38;3.87;;;2.50;;
10550;SDS011;5324;50.684;3.862;2022-11-27T15:57:04;2.33;;;1.93;;
10550;SDS011;5324;50.684;3.862;2022-11-27T15:59:31;3.70;;;3.03;;
10550;SDS011;5324;50.684;3.862;2022-11-27T16:02:00;3.53;;;2.17;;
10550;SDS011;5324;50.684;3.862;2022-11-27T16:04:27;4.90;;;2.60;;
10550;SDS011;5324;50.684;3.862;2022-11-27T16:06:53;4.40;;;2.50;;
10550;SDS011;5324;50.684;3.862;2022-11-27T16:09:19;4.00;;;2.53;;
10550;SDS011;5324;50.684;3.862;2022-11-27T16:11:45;4.10;;;2.70;;
10550;SDS011;5324;50.684;3.862;2022-11-27T16:14:11;2.60;;;2.30;;
10550;SDS011;5324;50.684;3.862;2022-11-27T16:16:37;4.53;;;2.93;;
10550;SDS011;5324;50.684;3.862;2022-11-27T16:19:03;2.87;;;2.67;;
10550;SDS011;5324;50.684;3.862;2022-11-27T16:21:31;6.57;;;2.63;;
10550;SDS011;5324;50.684;3.862;2022-11-27T16:23:58;4.00;;;2.50;;
10550;SDS011;5324;50.684;3.862;2022-11-27T16:26:24;2.77;;;2.27;;
10550;SDS011;5324;50.684;3.862;2022-11-27T16:28:50;5.03;;;3.00;;
10550;SDS011;5324;50.684;3.862;2022-11-27T16:31:17;2.80;;;2.10;;
10550;SDS011;5324;50.684;3.862;2022-11-27T16:33:43;4.63;;;2.70;;
10550;SDS011;5324;50.684;3.862;2022-11-27T16:36:10;4.20;;;2.70;;
10550;SDS011;5324;50.684;3.862;2022-11-27T16:38:36;3.50;;;2.73;;
10550;SDS011;5324;50.684;3.862;2022-11-27T16:41:03;2.73;;;2.50;;
10550;SDS011;5324;50.684;3.862;2022-11-27T16:43:34;3.10;;;2.20;;